createdAt,value
2023-03-01T00:01:05.506Z,92.30
2023-03-01T00:03:33.912Z,92.28
2023-03-01T00:06:01.169Z,92.24
2023-03-01T00:08:28.466Z,92.26
2023-03-01T00:11:06.318Z,91.81
2023-03-01T00:13:33.351Z,91.14
2023-03-01T00:16:00.114Z,90.96
2023-03-01T00:18:26.923Z,92.55
2023-03-01T00:20:55.216Z,92.04
2023-03-01T00:23:22.583Z,91.95
2023-03-01T00:25:49.544Z,92.25
2023-03-01T00:28:17.136Z,92.12
2023-03-01T00:30:43.957Z,91.92
2023-03-01T00:33:10.637Z,92.17
2023-03-01T00:35:37.762Z,92.89
2023-03-01T00:38:05.098Z,92.18
2023-03-01T00:40:33.634Z,93.54
2023-03-01T00:43:00.242Z,93.56
2023-03-01T00:45:27.213Z,92.64
2023-03-01T00:47:54.316Z,93.09
2023-03-01T00:50:21.494Z,92.96
2023-03-01T00:52:48.105Z,92.21
2023-03-01T00:55:14.929Z,92.65
2023-03-01T00:57:41.657Z,92.99
2023-03-01T01:00:10.724Z,92.49
2023-03-01T01:02:38.228Z,91.88
2023-03-01T01:05:05.807Z,92.35
2023-03-01T01:07:32.409Z,91.96
2023-03-01T01:09:59.150Z,92.84
2023-03-01T01:12:25.817Z,92.38
2023-03-01T01:14:52.634Z,92.80
2023-03-01T01:17:19.254Z,93.33
2023-03-01T01:19:45.905Z,93.27
2023-03-01T01:22:12.634Z,92.57
2023-03-01T01:24:39.255Z,92.91
2023-03-01T01:27:05.904Z,92.96
2023-03-01T01:29:32.527Z,93.67
2023-03-01T01:31:59.204Z,94.07
2023-03-01T01:34:25.920Z,94.46
2023-03-01T01:36:56.722Z,94.55
2023-03-01T01:39:23.690Z,94.24
2023-03-01T01:41:50.941Z,94.58
2023-03-01T01:44:24.587Z,94.88
2023-03-01T01:47:18.447Z,94.41
2023-03-01T01:49:48.783Z,95.70
2023-03-01T01:52:19.549Z,95.62
2023-03-01T01:54:51.983Z,96.01
2023-03-01T01:57:22.271Z,95.33
2023-03-01T01:59:56.567Z,96.14
2023-03-01T02:02:23.379Z,95.60
2023-03-01T02:04:55.477Z,94.83
2023-03-01T02:07:24.064Z,95.60
2023-03-01T02:09:53.569Z,95.68
2023-03-01T02:12:22.099Z,94.95
2023-03-01T02:14:48.731Z,95.75
2023-03-01T02:17:17.519Z,94.87
2023-03-01T02:20:30.712Z,95.03
2023-03-01T02:22:57.347Z,94.28
2023-03-01T02:25:47.317Z,95.57
2023-03-01T02:28:38.450Z,95.87
2023-03-01T02:31:26.520Z,96.03
2023-03-01T02:33:54.367Z,94.54
2023-03-01T02:36:24.491Z,95.15
2023-03-01T02:38:53.416Z,96.59
2023-03-01T02:41:21.469Z,95.51
2023-03-01T02:43:48.420Z,94.79
2023-03-01T02:46:25.393Z,95.58
2023-03-01T02:48:55.017Z,96.99
2023-03-01T02:52:20.382Z,95.93
2023-03-01T02:55:05.494Z,95.75
2023-03-01T02:57:33.569Z,96.42
2023-03-01T03:00:08.280Z,96.18
2023-03-01T03:02:38.618Z,95.69
2023-03-01T03:05:09.481Z,96.85
2023-03-01T03:07:38.404Z,97.37
2023-03-01T03:10:09.059Z,96.92
2023-03-01T03:12:35.684Z,96.95
2023-03-01T03:15:02.374Z,96.70
2023-03-01T03:17:29.013Z,97.45
2023-03-01T03:19:55.959Z,96.85
2023-03-01T03:22:22.589Z,97.91
2023-03-01T03:24:49.337Z,97.66
2023-03-01T03:27:15.934Z,96.45
2023-03-01T03:29:42.594Z,96.99
2023-03-01T03:32:09.187Z,96.56
2023-03-01T03:34:35.836Z,96.15
2023-03-01T03:37:02.506Z,96.75
2023-03-01T03:39:30.114Z,97.83
2023-03-01T03:41:56.820Z,96.96
2023-03-01T03:44:23.453Z,96.17
2023-03-01T03:46:50.259Z,95.70
2023-03-01T03:49:16.972Z,95.61
2023-03-01T03:51:43.529Z,97.04
2023-03-01T03:54:10.236Z,97.24
2023-03-01T03:56:37.650Z,97.60
2023-03-01T03:59:07.006Z,97.79
2023-03-01T04:01:33.710Z,98.07
2023-03-01T04:04:05.360Z,97.52
2023-03-01T04:06:32.307Z,98.29
2023-03-01T04:09:01.406Z,96.89
2023-03-01T04:11:28.112Z,96.75
2023-03-01T04:13:56.855Z,96.49
2023-03-01T04:16:24.717Z,97.33
2023-03-01T04:18:51.893Z,98.15
2023-03-01T04:21:18.541Z,98.00
2023-03-01T04:23:45.258Z,98.82
2023-03-01T04:26:11.990Z,99.37
2023-03-01T04:28:41.605Z,99.18
2023-03-01T04:31:17.878Z,99.76
2023-03-01T04:33:46.566Z,98.48
2023-03-01T04:36:14.675Z,97.96
2023-03-01T04:38:42.149Z,99.30
2023-03-01T04:41:12.239Z,99.22
2023-03-01T04:43:39.229Z,99.24
2023-03-01T04:46:10.621Z,99.25
2023-03-01T04:48:38.424Z,98.69
2023-03-01T04:51:06.912Z,97.66
2023-03-01T04:53:34.124Z,97.84
2023-03-01T04:56:00.684Z,97.60
2023-03-01T04:58:28.181Z,98.00
2023-03-01T05:00:54.947Z,99.26
2023-03-01T05:03:22.360Z,99.62
2023-03-01T05:05:51.509Z,99.78
2023-03-01T05:08:18.695Z,100.00
2023-03-01T05:10:47.467Z,100.00
2023-03-01T05:13:14.780Z,100.00
2023-03-01T05:15:41.448Z,100.00
2023-03-01T05:18:12.478Z,100.00
2023-03-01T05:20:39.749Z,99.24
2023-03-01T05:23:06.907Z,100.00
2023-03-01T05:25:34.872Z,99.52
2023-03-01T05:28:05.585Z,99.34
2023-03-01T05:30:34.284Z,99.10
2023-03-01T05:33:01.920Z,99.45
2023-03-01T05:35:29.279Z,99.04
2023-03-01T05:37:55.921Z,98.78
2023-03-01T05:40:25.249Z,98.21
2023-03-01T05:42:55.717Z,98.32
2023-03-01T05:45:24.085Z,97.45
2023-03-01T05:47:51.434Z,98.13
2023-03-01T05:50:20.845Z,98.50
2023-03-01T05:52:49.637Z,98.39
2023-03-01T05:55:21.098Z,98.42
2023-03-01T05:57:48.206Z,98.59
2023-03-01T06:00:16.922Z,97.95
2023-03-01T06:02:43.542Z,97.88
2023-03-01T06:05:11.593Z,96.23
2023-03-01T06:07:38.360Z,96.97
2023-03-01T06:10:06.779Z,97.13
2023-03-01T06:12:34.721Z,97.11
2023-03-01T06:15:01.968Z,97.21
2023-03-01T06:17:36.780Z,97.10
2023-03-01T06:20:04.371Z,97.55
2023-03-01T06:22:30.989Z,97.23
2023-03-01T06:24:57.660Z,96.86
2023-03-01T06:27:24.455Z,97.99
2023-03-01T06:29:54.617Z,98.07
2023-03-01T06:32:21.995Z,97.76
2023-03-01T06:34:48.760Z,97.55
2023-03-01T06:37:15.717Z,96.68
2023-03-01T06:39:42.557Z,95.97
2023-03-01T06:42:11.188Z,95.36
2023-03-01T06:44:38.421Z,95.77
2023-03-01T06:47:05.477Z,95.89
2023-03-01T06:49:32.123Z,96.43
2023-03-01T06:51:58.796Z,96.14
2023-03-01T06:54:27.036Z,96.50
2023-03-01T06:56:54.512Z,96.54
2023-03-01T06:59:21.708Z,96.63
2023-03-01T07:01:48.613Z,96.75
2023-03-01T07:04:15.475Z,98.98
2023-03-01T07:06:42.146Z,98.32
2023-03-01T07:09:09.024Z,97.98
2023-03-01T07:11:35.634Z,98.97
2023-03-01T07:14:02.311Z,98.24
2023-03-01T07:16:29.098Z,98.06
2023-03-01T07:18:55.873Z,97.66
2023-03-01T07:21:22.569Z,97.04
2023-03-01T07:23:50.162Z,96.09
2023-03-01T07:26:16.870Z,95.65
2023-03-01T07:28:43.407Z,95.52
2023-03-01T07:31:10.102Z,94.99
2023-03-01T07:33:36.723Z,94.56
2023-03-01T07:36:05.270Z,94.05
2023-03-01T07:38:32.502Z,93.54
2023-03-01T07:41:04.384Z,93.21
2023-03-01T07:43:31.688Z,93.60
2023-03-01T07:46:05.491Z,92.13
2023-03-01T07:48:32.548Z,91.57
2023-03-01T07:51:00.866Z,92.48
2023-03-01T07:53:28.332Z,90.98
2023-03-01T07:56:06.840Z,91.35
2023-03-01T07:58:36.192Z,90.67
2023-03-01T08:01:04.415Z,89.97
2023-03-01T08:03:31.042Z,91.15
2023-03-01T08:06:00.891Z,91.74
2023-03-01T08:08:27.703Z,89.41
2023-03-01T08:10:58.086Z,90.08
2023-03-01T08:13:25.137Z,90.55
2023-03-01T08:15:52.250Z,89.78
2023-03-01T08:18:19.944Z,89.41
2023-03-01T08:20:47.307Z,88.64
2023-03-01T08:23:14.044Z,88.56
2023-03-01T08:25:41.006Z,88.30
2023-03-01T08:28:07.551Z,87.77
2023-03-01T08:30:34.398Z,87.71
2023-03-01T08:33:01.280Z,86.74
2023-03-01T08:35:28.328Z,86.92
2023-03-01T08:37:55.160Z,85.29
2023-03-01T08:40:21.871Z,85.13
2023-03-01T08:42:48.615Z,84.45
2023-03-01T08:45:19.781Z,83.90
2023-03-01T08:47:46.633Z,84.18
2023-03-01T08:50:13.424Z,85.56
2023-03-01T08:52:40.137Z,85.11
2023-03-01T08:55:07.973Z,83.46
2023-03-01T08:57:35.707Z,81.36
2023-03-01T09:00:02.785Z,83.02
2023-03-01T09:02:29.577Z,83.24
2023-03-01T09:04:56.315Z,81.74
2023-03-01T09:07:22.977Z,82.21
2023-03-01T09:09:49.625Z,81.23
2023-03-01T09:12:16.321Z,80.56
2023-03-01T09:14:43.279Z,79.78
2023-03-01T09:17:10.044Z,81.49
2023-03-01T09:19:36.777Z,79.47
2023-03-01T09:22:05.250Z,77.07
2023-03-01T09:24:31.959Z,77.04
2023-03-01T09:26:58.752Z,78.31
2023-03-01T09:29:26.014Z,77.19
2023-03-01T09:31:52.804Z,75.94
2023-03-01T09:34:24.435Z,77.31
2023-03-01T09:36:52.404Z,76.53
2023-03-01T09:39:19.265Z,74.76
2023-03-01T09:41:48.009Z,76.16
2023-03-01T09:44:41.644Z,74.63
2023-03-01T09:47:18.962Z,74.76
2023-03-01T09:49:54.637Z,74.47
2023-03-01T09:52:35.870Z,73.79
2023-03-01T09:55:02.866Z,74.47
2023-03-01T09:57:44.526Z,74.05
2023-03-01T10:00:40.893Z,73.42
2023-03-01T10:03:40.858Z,73.74
2023-03-01T10:06:33.969Z,73.92
2023-03-01T10:09:11.261Z,72.87
2023-03-01T10:11:41.116Z,73.42
2023-03-01T10:14:52.404Z,73.31
2023-03-01T10:17:27.358Z,71.72
2023-03-01T10:19:54.204Z,71.71
2023-03-01T10:22:30.659Z,71.14
2023-03-01T10:25:00.029Z,72.27
2023-03-01T10:27:31.411Z,70.62
2023-03-01T10:30:11.069Z,70.76
2023-03-01T10:32:38.188Z,71.54
2023-03-01T10:35:38.809Z,71.15
2023-03-01T10:38:14.666Z,69.73
2023-03-01T10:40:58.326Z,70.11
2023-03-01T10:43:26.859Z,69.68
2023-03-01T10:45:54.037Z,69.39
2023-03-01T10:48:27.406Z,68.37
2023-03-01T10:51:00.139Z,68.37
2023-03-01T10:53:37.106Z,66.70
2023-03-01T10:56:07.436Z,67.27
2023-03-01T10:58:35.754Z,67.03
2023-03-01T11:01:08.195Z,66.32
2023-03-01T11:03:39.935Z,66.71
2023-03-01T11:06:27.449Z,67.56
2023-03-01T11:08:55.149Z,67.04
2023-03-01T11:11:34.530Z,67.48
2023-03-01T11:14:16.142Z,67.67
2023-03-01T11:17:05.340Z,68.12
2023-03-01T11:19:32.386Z,67.35
2023-03-01T11:22:29.146Z,66.59
2023-03-01T11:25:08.752Z,65.51
2023-03-01T11:27:40.339Z,65.09
2023-03-01T11:30:17.317Z,65.28
2023-03-01T11:32:47.888Z,65.70
2023-03-01T11:35:25.580Z,64.88
2023-03-01T11:38:33.208Z,65.70
2023-03-01T11:41:09.139Z,64.75
2023-03-01T11:44:25.088Z,66.75
2023-03-01T11:47:28.609Z,65.82
2023-03-01T11:50:26.843Z,65.47
2023-03-01T11:53:07.342Z,66.05
2023-03-01T11:55:38.410Z,65.21
2023-03-01T11:58:41.344Z,65.92
2023-03-01T12:01:56.293Z,65.08
2023-03-01T12:04:34.198Z,64.86
2023-03-01T12:07:02.438Z,64.27
2023-03-01T12:09:50.043Z,64.43
2023-03-01T12:12:29.478Z,64.91
2023-03-01T12:15:31.634Z,64.90
2023-03-01T12:18:26.080Z,65.47
2023-03-01T12:21:01.254Z,65.66
2023-03-01T12:23:46.767Z,65.15
2023-03-01T12:26:34.651Z,65.52
2023-03-01T12:29:27.565Z,65.50
2023-03-01T12:32:15.375Z,64.57
2023-03-01T12:34:51.131Z,64.39
2023-03-01T12:37:35.525Z,63.57
2023-03-01T12:40:43.405Z,62.84
2023-03-01T12:44:06.033Z,62.96
2023-03-01T12:46:57.588Z,63.36
2023-03-01T12:49:30.148Z,63.17
2023-03-01T12:52:24.784Z,63.95
2023-03-01T12:54:53.056Z,63.71
2023-03-01T12:57:28.139Z,63.54
2023-03-01T13:00:27.520Z,64.35
2023-03-01T13:03:20.537Z,64.22
2023-03-01T13:06:07.211Z,63.45
2023-03-01T13:09:03.122Z,64.37
2023-03-01T13:11:29.928Z,64.78
2023-03-01T13:14:27.040Z,65.79
2023-03-01T13:16:54.745Z,66.14
2023-03-01T13:19:25.890Z,65.84
2023-03-01T13:21:57.248Z,65.28
2023-03-01T13:24:43.367Z,65.02
2023-03-01T13:27:23.939Z,64.64
2023-03-01T13:29:56.287Z,64.27
2023-03-01T13:32:43.523Z,64.22
2023-03-01T13:35:44.730Z,62.95
2023-03-01T13:38:39.611Z,61.20
2023-03-01T13:41:06.299Z,60.96
2023-03-01T13:43:36.075Z,59.84
2023-03-01T13:46:09.681Z,59.69
2023-03-01T13:48:36.362Z,58.23
2023-03-01T13:51:09.744Z,57.56
2023-03-01T13:53:38.583Z,57.96
2023-03-01T13:56:21.404Z,57.44
2023-03-01T13:58:53.922Z,56.87
2023-03-01T14:01:28.198Z,57.06
2023-03-01T14:03:55.527Z,57.62
2023-03-01T14:06:27.757Z,57.89
2023-03-01T14:09:20.231Z,57.76
2023-03-01T14:12:08.573Z,56.70
2023-03-01T14:14:48.708Z,58.01
2023-03-01T14:17:48.090Z,57.79
2023-03-01T14:20:43.154Z,57.17
2023-03-01T14:23:14.269Z,57.33
2023-03-01T14:25:49.012Z,57.77
2023-03-01T14:28:18.789Z,57.94
2023-03-01T14:30:50.926Z,57.61
2023-03-01T14:33:42.697Z,57.32
2023-03-01T14:36:14.185Z,56.78
2023-03-01T14:38:45.863Z,57.90
2023-03-01T14:41:17.810Z,58.24
2023-03-01T14:43:54.212Z,58.35
2023-03-01T14:46:42.160Z,58.41
2023-03-01T14:49:21.255Z,58.76
2023-03-01T14:51:55.290Z,59.50
2023-03-01T14:54:26.846Z,58.06
2023-03-01T14:56:55.508Z,58.47
2023-03-01T14:59:25.663Z,58.86
2023-03-01T15:01:57.214Z,58.34
2023-03-01T15:04:25.032Z,58.12
2023-03-01T15:06:53.591Z,58.57
2023-03-01T15:09:20.697Z,59.62
2023-03-01T15:11:47.345Z,58.46
2023-03-01T15:14:29.375Z,58.85
2023-03-01T15:16:56.873Z,59.46
2023-03-01T15:19:25.277Z,59.78
2023-03-01T15:21:52.290Z,60.11
2023-03-01T15:24:25.805Z,60.79
2023-03-01T15:27:03.271Z,60.97
2023-03-01T15:29:31.377Z,60.79
2023-03-01T15:32:07.195Z,60.84
2023-03-01T15:34:37.906Z,61.53
2023-03-01T15:37:06.892Z,61.64
2023-03-01T15:39:44.583Z,61.65
2023-03-01T15:42:37.956Z,62.33
2023-03-01T15:45:31.788Z,62.48
2023-03-01T15:48:02.627Z,63.50
2023-03-01T15:50:31.509Z,63.54
2023-03-01T15:52:59.571Z,63.64
2023-03-01T15:55:30.918Z,63.59
2023-03-01T15:58:19.486Z,63.75
2023-03-01T16:00:59.756Z,64.18
2023-03-01T16:03:27.709Z,64.77
2023-03-01T16:05:54.885Z,65.01
2023-03-01T16:08:21.666Z,64.41
2023-03-01T16:10:51.064Z,64.15
2023-03-01T16:13:18.510Z,64.39
2023-03-01T16:15:45.187Z,64.03
2023-03-01T16:18:12.959Z,64.15
2023-03-01T16:20:40.320Z,64.17
2023-03-01T16:23:08.745Z,64.91
2023-03-01T16:25:36.417Z,64.51
2023-03-01T16:28:06.145Z,64.59
2023-03-01T16:30:33.384Z,65.01
2023-03-01T16:33:00.820Z,65.15
2023-03-01T16:35:27.578Z,64.97
2023-03-01T16:37:55.047Z,65.56
2023-03-01T16:40:27.959Z,66.36
2023-03-01T16:42:56.479Z,66.21
2023-03-01T16:45:24.643Z,64.96
2023-03-01T16:47:55.090Z,65.50
2023-03-01T16:50:22.952Z,66.24
2023-03-01T16:52:49.710Z,66.15
2023-03-01T16:55:16.440Z,66.64
2023-03-01T16:57:43.058Z,66.66
2023-03-01T17:00:12.060Z,66.65
2023-03-01T17:02:38.811Z,67.54
2023-03-01T17:05:06.321Z,67.35
2023-03-01T17:07:34.481Z,67.40
2023-03-01T17:10:02.153Z,68.05
2023-03-01T17:12:29.111Z,67.02
2023-03-01T17:14:55.758Z,67.38
2023-03-01T17:17:22.911Z,68.22
2023-03-01T17:19:49.564Z,68.68
2023-03-01T17:22:17.729Z,67.82
2023-03-01T17:24:44.938Z,68.04
2023-03-01T17:27:12.888Z,68.42
2023-03-01T17:29:40.773Z,68.55
2023-03-01T17:32:08.718Z,68.54
2023-03-01T17:34:35.578Z,68.29
2023-03-01T17:37:02.218Z,68.41
2023-03-01T17:39:36.290Z,68.18
2023-03-01T17:42:05.331Z,68.25
2023-03-01T17:44:34.640Z,68.45
2023-03-01T17:47:03.345Z,68.22
2023-03-01T17:49:30.497Z,67.48
2023-03-01T17:51:57.320Z,67.77
2023-03-01T17:54:24.060Z,67.38
2023-03-01T17:56:51.216Z,67.96
2023-03-01T17:59:18.095Z,68.30
2023-03-01T18:01:45.158Z,68.02
2023-03-01T18:04:12.046Z,67.41
2023-03-01T18:06:41.147Z,67.69
2023-03-01T18:09:08.788Z,68.52
2023-03-01T18:11:36.029Z,68.24
2023-03-01T18:14:03.042Z,67.51
2023-03-01T18:16:32.414Z,67.66
2023-03-01T18:19:00.199Z,68.48
2023-03-01T18:21:28.123Z,68.35
2023-03-01T18:23:54.932Z,68.00
2023-03-01T18:26:22.812Z,68.47
2023-03-01T18:28:51.793Z,69.30
2023-03-01T18:31:22.465Z,68.60
2023-03-01T18:33:50.200Z,69.38
2023-03-01T18:36:25.429Z,69.53
2023-03-01T18:38:54.063Z,69.21
2023-03-01T18:41:20.878Z,68.40
2023-03-01T18:43:47.713Z,68.74
2023-03-01T18:46:14.768Z,68.93
2023-03-01T18:48:41.417Z,69.89
2023-03-01T18:51:13.834Z,69.19
2023-03-01T18:53:40.654Z,69.14
2023-03-01T18:56:08.486Z,69.67
2023-03-01T18:58:35.414Z,68.48
2023-03-01T19:01:04.433Z,68.41
2023-03-01T19:03:31.541Z,69.13
2023-03-01T19:06:01.153Z,68.27
2023-03-01T19:08:30.748Z,68.97
2023-03-01T19:11:02.459Z,68.71
2023-03-01T19:13:29.650Z,68.33
2023-03-01T19:16:28.177Z,69.31
2023-03-01T19:19:00.204Z,69.47
2023-03-01T19:21:28.708Z,69.94
2023-03-01T19:23:56.652Z,70.22
2023-03-01T19:26:25.686Z,70.62
2023-03-01T19:28:52.603Z,70.46
2023-03-01T19:31:24.345Z,69.74
2023-03-01T19:33:52.943Z,69.67
2023-03-01T19:36:22.202Z,70.42
2023-03-01T19:38:49.038Z,71.14
2023-03-01T19:41:18.477Z,71.10
2023-03-01T19:43:46.012Z,70.03
2023-03-01T19:46:13.826Z,69.98
2023-03-01T19:48:41.217Z,71.63
2023-03-01T19:51:08.742Z,71.33
2023-03-01T19:53:35.455Z,70.44
2023-03-01T19:56:02.525Z,71.74
2023-03-01T19:58:30.694Z,71.95
2023-03-01T20:01:00.940Z,71.90
2023-03-01T20:03:33.778Z,71.71
2023-03-01T20:06:02.846Z,71.84
2023-03-01T20:08:31.373Z,71.88
2023-03-01T20:11:06.496Z,71.59
2023-03-01T20:13:33.688Z,71.30
2023-03-01T20:16:00.612Z,70.71
2023-03-01T20:18:28.168Z,71.34
2023-03-01T20:20:55.009Z,71.20
2023-03-01T20:23:21.697Z,70.12
2023-03-01T20:25:51.403Z,70.53
2023-03-01T20:28:19.516Z,70.83
2023-03-01T20:30:46.553Z,71.37
2023-03-01T20:33:13.293Z,71.56
2023-03-01T20:35:43.353Z,70.34
2023-03-01T20:38:10.284Z,71.44
2023-03-01T20:40:38.067Z,71.46
2023-03-01T20:43:05.369Z,72.00
2023-03-01T20:45:32.585Z,72.07
2023-03-01T20:48:02.246Z,71.46
2023-03-01T20:50:29.403Z,71.47
2023-03-01T20:52:56.521Z,72.13
2023-03-01T20:55:23.197Z,73.09
2023-03-01T20:57:50.040Z,72.57
2023-03-01T21:00:17.216Z,72.84
2023-03-01T21:02:44.251Z,72.64
2023-03-01T21:05:10.855Z,73.68
2023-03-01T21:07:37.648Z,73.51
2023-03-01T21:10:05.645Z,73.38
2023-03-01T21:12:36.442Z,73.65
2023-03-01T21:15:04.004Z,72.51
2023-03-01T21:17:30.990Z,72.75
2023-03-01T21:19:57.837Z,72.93
2023-03-01T21:22:24.798Z,72.08
2023-03-01T21:24:51.889Z,71.92
2023-03-01T21:27:19.073Z,71.57
2023-03-01T21:29:46.618Z,71.75
2023-03-01T21:32:14.372Z,70.94
2023-03-01T21:34:41.847Z,71.75
2023-03-01T21:37:10.605Z,71.80
2023-03-01T21:39:37.676Z,71.38
2023-03-01T21:42:05.263Z,70.95
2023-03-01T21:44:33.008Z,71.93
2023-03-01T21:46:59.722Z,71.51
2023-03-01T21:49:27.061Z,71.31
2023-03-01T21:51:53.766Z,70.79
2023-03-01T21:54:21.477Z,71.60
2023-03-01T21:56:49.485Z,71.22
2023-03-01T21:59:19.828Z,71.61
2023-03-01T22:01:47.396Z,71.41
2023-03-01T22:04:15.112Z,71.90
2023-03-01T22:06:44.814Z,71.22
2023-03-01T22:09:23.073Z,71.88
2023-03-01T22:11:54.247Z,71.46
2023-03-01T22:14:21.811Z,72.32
2023-03-01T22:16:51.610Z,71.88
2023-03-01T22:19:19.216Z,71.15
2023-03-01T22:21:50.172Z,71.43
2023-03-01T22:24:18.990Z,72.58
2023-03-01T22:26:47.323Z,72.65
2023-03-01T22:29:17.453Z,73.35
2023-03-01T22:31:44.646Z,71.48
2023-03-01T22:34:12.182Z,71.97
2023-03-01T22:36:42.211Z,72.30
2023-03-01T22:39:09.303Z,72.85
2023-03-01T22:41:45.179Z,72.61
2023-03-01T22:44:14.215Z,72.91
2023-03-01T22:46:41.115Z,72.71
2023-03-01T22:49:07.874Z,72.29
2023-03-01T22:51:36.634Z,72.20
2023-03-01T22:54:04.053Z,71.79
2023-03-01T22:56:33.091Z,72.15
2023-03-01T22:59:02.631Z,72.30
2023-03-01T23:01:30.707Z,72.41
2023-03-01T23:03:57.629Z,72.13
2023-03-01T23:06:24.693Z,72.37
2023-03-01T23:08:53.702Z,72.27
2023-03-01T23:11:21.463Z,71.89
2023-03-01T23:13:48.496Z,72.55
2023-03-01T23:16:15.750Z,72.57
2023-03-01T23:18:42.578Z,72.37
2023-03-01T23:21:17.115Z,72.52
2023-03-01T23:23:44.446Z,72.76
2023-03-01T23:26:11.120Z,72.51
2023-03-01T23:28:41.210Z,72.02
2023-03-01T23:31:10.977Z,72.56
2023-03-01T23:33:40.651Z,72.21
2023-03-01T23:36:18.658Z,71.42
2023-03-01T23:38:46.885Z,71.95
2023-03-01T23:41:15.884Z,72.09
2023-03-01T23:43:46.887Z,72.15
2023-03-01T23:46:14.664Z,72.15
2023-03-01T23:48:42.548Z,72.45
2023-03-01T23:51:09.749Z,72.57
2023-03-01T23:53:38.657Z,73.27
2023-03-01T23:56:05.932Z,73.62
2023-03-01T23:58:32.810Z,73.71
